createdAt,value
2022-12-22T00:02:07.180Z,3.97
2022-12-22T00:04:53.103Z,4.57
2022-12-22T00:07:40.077Z,4.70
2022-12-22T00:10:28.989Z,4.80
2022-12-22T00:13:15.079Z,5.03
2022-12-22T00:16:00.623Z,5.10
2022-12-22T00:18:46.418Z,5.80
2022-12-22T00:21:32.863Z,5.87
2022-12-22T00:24:20.380Z,5.83
2022-12-22T00:27:06.840Z,6.10
2022-12-22T00:29:59.852Z,5.67
2022-12-22T00:32:52.264Z,6.10
2022-12-22T00:35:41.192Z,5.47
2022-12-22T00:38:32.305Z,5.03
2022-12-22T00:41:19.560Z,5.47
2022-12-22T00:44:04.989Z,5.37
2022-12-22T00:46:52.369Z,4.83
2022-12-22T00:49:38.389Z,5.13
2022-12-22T00:52:24.212Z,5.40
2022-12-22T00:55:12.691Z,5.30
2022-12-22T00:58:01.421Z,5.43
2022-12-22T01:00:47.540Z,5.80
2022-12-22T01:03:33.468Z,4.90
2022-12-22T01:06:21.028Z,4.40
2022-12-22T01:09:07.463Z,5.23
2022-12-22T01:11:54.033Z,4.23
2022-12-22T01:14:41.008Z,4.33
2022-12-22T01:17:28.304Z,4.53
2022-12-22T01:20:14.243Z,3.90
2022-12-22T01:23:00.406Z,4.00
2022-12-22T01:25:46.110Z,3.73
2022-12-22T01:28:33.294Z,4.50
2022-12-22T01:31:35.094Z,4.10
2022-12-22T01:34:20.809Z,3.87
2022-12-22T01:37:06.533Z,4.33
2022-12-22T01:39:52.153Z,4.57
2022-12-22T01:42:38.264Z,4.00
2022-12-22T01:45:38.479Z,5.20
2022-12-22T01:48:29.804Z,5.13
2022-12-22T01:51:16.176Z,5.00
2022-12-22T01:54:02.393Z,3.87
2022-12-22T01:56:47.839Z,4.87
2022-12-22T01:59:33.642Z,4.70
2022-12-22T02:02:23.715Z,4.77
2022-12-22T02:05:12.976Z,4.53
2022-12-22T02:08:20.372Z,4.27
2022-12-22T02:11:18.157Z,4.00
2022-12-22T02:14:13.782Z,4.07
2022-12-22T02:17:09.949Z,4.27
2022-12-22T02:20:20.362Z,3.90
2022-12-22T02:23:11.930Z,3.80
2022-12-22T02:26:07.369Z,4.47
2022-12-22T02:28:55.390Z,4.10
2022-12-22T02:31:41.653Z,4.43
2022-12-22T02:34:33.029Z,4.37
2022-12-22T02:37:25.689Z,4.03
2022-12-22T02:40:18.587Z,4.33
2022-12-22T02:43:15.096Z,4.57
2022-12-22T02:46:08.251Z,4.27
2022-12-22T02:49:00.631Z,4.23
2022-12-22T02:51:50.502Z,4.10
2022-12-22T02:54:37.339Z,4.70
2022-12-22T02:57:25.169Z,4.33
2022-12-22T03:00:10.658Z,3.87
2022-12-22T03:02:58.117Z,4.67
2022-12-22T03:05:43.827Z,4.53
2022-12-22T03:08:29.653Z,4.83
2022-12-22T03:11:15.223Z,4.30
2022-12-22T03:14:00.906Z,4.93
2022-12-22T03:16:46.702Z,4.30
2022-12-22T03:19:34.011Z,5.30
2022-12-22T03:22:19.713Z,5.53
2022-12-22T03:25:05.464Z,5.50
2022-12-22T03:27:33.674Z,5.37
2022-12-22T03:30:01.876Z,5.47
2022-12-22T03:32:30.095Z,5.70
2022-12-22T03:34:59.648Z,5.53
2022-12-22T03:37:27.882Z,6.03
2022-12-22T03:39:56.163Z,6.07
2022-12-22T03:42:41.957Z,5.60
2022-12-22T03:45:29.042Z,5.67
2022-12-22T03:47:57.253Z,5.77
2022-12-22T03:50:27.113Z,5.40
2022-12-22T03:52:55.473Z,5.53
2022-12-22T03:55:25.165Z,5.53
2022-12-22T03:57:53.469Z,5.10
2022-12-22T04:00:22.276Z,5.43
2022-12-22T04:02:50.626Z,5.90
2022-12-22T04:05:19.127Z,6.20
2022-12-22T04:07:48.872Z,5.67
2022-12-22T04:10:34.727Z,5.37
2022-12-22T04:13:03.201Z,5.47
2022-12-22T04:15:33.168Z,5.33
2022-12-22T04:18:01.462Z,5.30
2022-12-22T04:20:30.303Z,5.20
2022-12-22T04:22:59.991Z,4.80
2022-12-22T04:25:29.761Z,4.73
2022-12-22T04:27:58.197Z,4.60
2022-12-22T04:30:26.767Z,4.83
2022-12-22T04:32:54.979Z,4.33
2022-12-22T04:35:23.381Z,4.50
2022-12-22T04:37:51.564Z,4.60
2022-12-22T04:40:21.269Z,5.10
2022-12-22T04:42:49.593Z,4.30
2022-12-22T04:45:17.904Z,5.20
2022-12-22T04:47:46.094Z,5.40
2022-12-22T04:50:14.548Z,5.50
2022-12-22T04:52:42.831Z,5.23
2022-12-22T04:55:11.229Z,5.60
2022-12-22T04:57:41.331Z,5.87
2022-12-22T05:00:11.314Z,6.17
2022-12-22T05:02:39.656Z,6.60
2022-12-22T05:05:09.598Z,7.23
2022-12-22T05:07:38.332Z,7.70
2022-12-22T05:10:07.225Z,8.10
2022-12-22T05:12:52.766Z,7.93
2022-12-22T05:15:22.554Z,9.00
2022-12-22T05:17:50.878Z,8.70
2022-12-22T05:20:19.705Z,8.87
2022-12-22T05:22:48.939Z,9.90
2022-12-22T05:25:18.085Z,9.67
2022-12-22T05:27:46.468Z,9.70
2022-12-22T05:30:16.204Z,10.33
2022-12-22T05:32:46.255Z,10.33
2022-12-22T05:35:14.875Z,9.50
2022-12-22T05:37:43.175Z,9.20
2022-12-22T05:40:13.533Z,9.93
2022-12-22T05:42:42.270Z,10.03
2022-12-22T05:45:15.538Z,10.73
2022-12-22T05:47:48.846Z,9.73
2022-12-22T05:50:19.840Z,10.23
2022-12-22T05:52:48.367Z,10.87
2022-12-22T05:55:17.285Z,10.33
2022-12-22T05:57:45.847Z,10.70
2022-12-22T06:00:16.581Z,11.30
2022-12-22T06:02:46.992Z,10.70
2022-12-22T06:05:16.539Z,10.40
2022-12-22T06:07:44.649Z,9.73
2022-12-22T06:10:13.818Z,11.27
2022-12-22T06:12:42.498Z,11.33
2022-12-22T06:15:13.835Z,11.10
2022-12-22T06:17:45.054Z,11.60
2022-12-22T06:20:16.096Z,11.03
2022-12-22T06:22:44.458Z,12.00
2022-12-22T06:25:18.189Z,11.40
2022-12-22T06:27:47.575Z,11.93
2022-12-22T06:30:16.821Z,11.90
2022-12-22T06:32:44.998Z,11.00
2022-12-22T06:35:15.016Z,11.23
2022-12-22T06:37:43.446Z,11.23
2022-12-22T06:40:24.192Z,10.80
2022-12-22T06:43:09.085Z,10.80
2022-12-22T06:45:43.605Z,11.00
2022-12-22T06:48:14.193Z,11.93
2022-12-22T06:50:45.380Z,10.60
2022-12-22T06:53:14.651Z,11.33
2022-12-22T06:55:50.076Z,10.87
2022-12-22T06:58:19.696Z,11.33
2022-12-22T07:00:51.639Z,10.60
2022-12-22T07:03:20.594Z,10.50
2022-12-22T07:05:52.299Z,13.83
2022-12-22T07:08:20.895Z,11.13
2022-12-22T07:11:01.416Z,10.37
2022-12-22T07:13:34.167Z,11.30
2022-12-22T07:16:03.749Z,10.57
2022-12-22T07:18:36.254Z,10.93
2022-12-22T07:21:11.498Z,11.30
2022-12-22T07:23:41.126Z,11.40
2022-12-22T07:26:11.313Z,11.50
2022-12-22T07:28:42.632Z,11.80
2022-12-22T07:31:25.847Z,11.83
2022-12-22T07:33:55.317Z,11.27
2022-12-22T07:36:25.385Z,10.50
2022-12-22T07:38:55.293Z,11.30
2022-12-22T07:41:41.146Z,11.27
2022-12-22T07:44:10.436Z,11.23
2022-12-22T07:46:40.712Z,11.33
2022-12-22T07:49:27.336Z,11.07
2022-12-22T07:51:58.861Z,11.57
2022-12-22T07:54:41.405Z,11.63
2022-12-22T07:57:22.796Z,11.27
2022-12-22T07:59:51.445Z,11.43
2022-12-22T08:02:20.948Z,10.00
2022-12-22T08:04:50.230Z,10.90
2022-12-22T08:07:20.305Z,9.47
2022-12-22T08:09:48.644Z,9.30
2022-12-22T08:12:17.987Z,10.30
2022-12-22T08:14:46.465Z,9.77
2022-12-22T08:17:14.855Z,9.57
2022-12-22T08:19:44.497Z,9.60
2022-12-22T08:22:13.371Z,10.00
2022-12-22T08:24:43.353Z,9.03
2022-12-22T08:27:22.259Z,9.57
2022-12-22T08:29:57.012Z,9.60
2022-12-22T08:32:25.742Z,10.30
2022-12-22T08:34:55.612Z,9.90
2022-12-22T08:37:27.824Z,9.83
2022-12-22T08:40:02.693Z,9.93
2022-12-22T08:42:31.341Z,10.40
2022-12-22T08:45:04.082Z,10.13
2022-12-22T08:47:32.665Z,10.83
2022-12-22T08:50:09.479Z,10.60
2022-12-22T08:52:40.634Z,11.23
2022-12-22T08:55:11.677Z,11.80
2022-12-22T08:57:40.043Z,11.00
2022-12-22T09:00:13.856Z,11.20
2022-12-22T09:02:46.639Z,11.07
2022-12-22T09:05:20.331Z,11.93
2022-12-22T09:07:48.792Z,12.33
2022-12-22T09:10:18.994Z,11.13
2022-12-22T09:12:49.328Z,11.07
2022-12-22T09:15:18.516Z,11.73
2022-12-22T09:17:47.213Z,11.57
2022-12-22T09:20:16.081Z,12.53
2022-12-22T09:22:44.377Z,12.77
2022-12-22T09:25:14.537Z,12.90
2022-12-22T09:27:44.602Z,12.53
2022-12-22T09:30:14.408Z,13.57
2022-12-22T09:32:42.926Z,14.43
2022-12-22T09:35:17.822Z,13.83
2022-12-22T09:37:47.071Z,15.10
2022-12-22T09:40:15.767Z,13.20
2022-12-22T09:42:46.101Z,13.03
2022-12-22T09:45:20.324Z,13.20
2022-12-22T09:47:55.090Z,13.60
2022-12-22T09:53:33.096Z,12.40
2022-12-22T09:56:02.126Z,12.77
2022-12-22T09:58:36.641Z,12.63
2022-12-22T10:02:01.695Z,12.93
2022-12-22T10:04:56.006Z,12.97
2022-12-22T10:07:31.183Z,13.10
2022-12-22T10:10:01.428Z,13.40
2022-12-22T10:12:30.418Z,14.13
2022-12-22T10:15:03.035Z,13.67
2022-12-22T10:17:33.780Z,14.90
2022-12-22T10:20:20.937Z,14.83
2022-12-22T10:22:53.970Z,14.13
2022-12-22T10:25:51.859Z,13.80
2022-12-22T10:28:24.845Z,13.83
2022-12-22T10:31:13.499Z,13.53
2022-12-22T10:36:28.279Z,13.70
2022-12-22T10:39:04.277Z,13.20
2022-12-22T10:41:39.344Z,13.07
2022-12-22T10:44:12.289Z,13.20
2022-12-22T10:46:46.059Z,12.90
2022-12-22T10:49:20.180Z,12.17
2022-12-22T10:51:52.486Z,12.83
2022-12-22T10:54:42.854Z,13.73
2022-12-22T10:57:27.837Z,13.30
2022-12-22T10:59:59.595Z,12.37
2022-12-22T11:02:35.106Z,14.03
2022-12-22T11:05:09.541Z,13.37
2022-12-22T11:07:42.268Z,14.57
2022-12-22T11:10:22.658Z,13.53
2022-12-22T11:13:25.285Z,13.90
2022-12-22T11:16:08.177Z,13.00
2022-12-22T11:19:11.310Z,13.13
2022-12-22T11:21:46.920Z,13.40
2022-12-22T11:27:32.024Z,12.47
2022-12-22T11:30:17.517Z,12.10
2022-12-22T11:33:26.536Z,11.50
2022-12-22T11:36:06.514Z,10.20
2022-12-22T11:39:03.874Z,10.13
2022-12-22T11:41:47.929Z,10.50
2022-12-22T11:44:32.726Z,10.50
2022-12-22T11:47:18.630Z,9.73
2022-12-22T11:50:58.325Z,10.80
2022-12-22T11:54:11.908Z,11.27
2022-12-22T11:56:43.687Z,11.43
2022-12-22T12:02:49.875Z,11.50
2022-12-22T12:05:44.367Z,11.80
2022-12-22T12:08:28.060Z,12.90
2022-12-22T12:11:11.731Z,11.17
2022-12-22T12:13:48.929Z,11.63
2022-12-22T12:16:25.050Z,11.30
2022-12-22T12:19:28.971Z,11.47
2022-12-22T12:22:13.706Z,11.87
2022-12-22T12:25:00.832Z,11.50
2022-12-22T12:27:56.205Z,10.10
2022-12-22T12:30:37.888Z,10.47
2022-12-22T12:33:17.020Z,11.77
2022-12-22T12:35:56.143Z,12.10
2022-12-22T12:39:06.197Z,12.00
2022-12-22T12:41:30.279Z,12.80
2022-12-22T12:44:01.841Z,13.30
2022-12-22T12:46:48.858Z,13.23
2022-12-22T12:49:58.681Z,13.50
2022-12-22T12:53:10.743Z,13.53
2022-12-22T12:56:02.992Z,13.67
2022-12-22T12:58:59.253Z,13.87
2022-12-22T13:02:06.121Z,13.47
2022-12-22T13:05:15.314Z,14.10
2022-12-22T13:08:11.712Z,13.57
2022-12-22T13:11:37.949Z,12.53
2022-12-22T13:17:18.539Z,13.27
2022-12-22T13:19:50.425Z,11.60
2022-12-22T13:22:30.034Z,12.53
2022-12-22T13:25:23.832Z,11.63
2022-12-22T13:27:53.665Z,12.00
2022-12-22T13:30:24.550Z,10.73
2022-12-22T13:32:57.120Z,11.07
2022-12-22T13:35:37.401Z,10.73
2022-12-22T13:38:32.553Z,10.53
2022-12-22T13:41:02.864Z,11.10
2022-12-22T13:43:33.539Z,10.77
2022-12-22T13:46:06.977Z,9.67
2022-12-22T13:48:45.111Z,9.23
2022-12-22T13:51:22.202Z,9.23
2022-12-22T13:54:08.407Z,9.07
2022-12-22T13:56:41.302Z,8.63
2022-12-22T13:59:23.828Z,7.83
2022-12-22T14:02:02.734Z,8.77
2022-12-22T14:04:32.721Z,8.50
2022-12-22T14:07:13.673Z,8.27
2022-12-22T14:09:46.260Z,8.00
2022-12-22T14:12:23.691Z,7.87
2022-12-22T14:17:57.273Z,8.10
2022-12-22T14:20:28.882Z,8.17
2022-12-22T14:23:03.469Z,7.77
2022-12-22T14:25:35.696Z,8.00
2022-12-22T14:28:08.117Z,6.93
2022-12-22T14:30:39.333Z,6.63
2022-12-22T14:33:27.695Z,6.27
2022-12-22T14:36:15.090Z,6.43
2022-12-22T14:38:47.470Z,6.63
2022-12-22T14:41:39.486Z,6.47
2022-12-22T14:44:13.644Z,6.60
2022-12-22T14:46:42.577Z,6.70
2022-12-22T14:49:16.298Z,6.23
2022-12-22T14:51:44.557Z,6.53
2022-12-22T14:54:23.580Z,5.90
2022-12-22T14:56:54.248Z,5.63
2022-12-22T14:59:25.833Z,5.83
2022-12-22T15:02:03.413Z,5.50
2022-12-22T15:04:32.993Z,5.80
2022-12-22T15:07:45.710Z,5.60
2022-12-22T15:10:15.530Z,6.63
2022-12-22T15:12:45.086Z,5.27
2022-12-22T15:15:20.030Z,5.47
2022-12-22T15:17:50.447Z,5.50
2022-12-22T15:20:22.372Z,5.47
2022-12-22T15:22:51.020Z,5.47
2022-12-22T15:25:22.864Z,5.23
2022-12-22T15:27:52.187Z,5.93
2022-12-22T15:30:28.838Z,5.10
2022-12-22T15:32:57.843Z,5.10
2022-12-22T15:35:31.728Z,5.80
2022-12-22T15:38:00.069Z,5.20
2022-12-22T15:40:30.347Z,5.83
2022-12-22T15:42:58.793Z,5.97
2022-12-22T15:45:27.069Z,5.87
2022-12-22T15:47:57.216Z,5.87
2022-12-22T15:50:36.750Z,5.77
2022-12-22T15:53:09.204Z,5.27
2022-12-22T15:55:43.244Z,4.57
2022-12-22T15:58:14.623Z,4.63
2022-12-22T16:00:42.906Z,5.03
2022-12-22T16:03:13.363Z,4.77
2022-12-22T16:05:42.969Z,5.13
2022-12-22T16:08:18.311Z,5.87
2022-12-22T16:10:49.078Z,5.63
2022-12-22T16:13:18.410Z,5.93
2022-12-22T16:15:46.738Z,5.87
2022-12-22T16:18:15.075Z,5.40
2022-12-22T16:20:45.152Z,5.60
2022-12-22T16:23:17.847Z,5.40
2022-12-22T16:25:48.921Z,5.80
2022-12-22T16:28:20.121Z,6.23
2022-12-22T16:30:48.694Z,6.17
2022-12-22T16:33:17.824Z,5.93
2022-12-22T16:35:46.007Z,5.77
2022-12-22T16:38:19.345Z,5.70
2022-12-22T16:40:53.177Z,5.73
2022-12-22T16:46:15.950Z,5.67
2022-12-22T16:48:46.484Z,5.77
2022-12-22T16:51:18.792Z,6.17
2022-12-22T16:53:47.224Z,5.93
2022-12-22T16:56:23.458Z,5.93
2022-12-22T16:58:52.101Z,5.70
2022-12-22T17:01:25.517Z,5.93
2022-12-22T17:03:57.919Z,5.70
2022-12-22T17:06:26.377Z,6.03
2022-12-22T17:08:55.281Z,6.33
2022-12-22T17:11:29.580Z,6.53
2022-12-22T17:14:04.966Z,5.33
2022-12-22T17:16:33.850Z,6.23
2022-12-22T17:19:02.431Z,5.53
2022-12-22T17:21:31.345Z,6.40
2022-12-22T17:24:04.524Z,5.27
2022-12-22T17:26:35.738Z,5.90
2022-12-22T17:29:04.207Z,6.37
2022-12-22T17:31:33.074Z,6.07
2022-12-22T17:34:01.402Z,6.27
2022-12-22T17:36:34.813Z,7.10
2022-12-22T17:39:05.362Z,5.53
2022-12-22T17:41:35.009Z,6.10
2022-12-22T17:44:03.501Z,5.67
2022-12-22T17:46:31.833Z,6.00
2022-12-22T17:49:00.268Z,5.30
2022-12-22T17:51:30.774Z,6.43
2022-12-22T17:54:00.192Z,5.83
2022-12-22T17:56:30.320Z,5.63
2022-12-22T17:59:00.226Z,5.77
2022-12-22T18:01:31.169Z,5.83
2022-12-22T18:03:59.795Z,6.17
2022-12-22T18:06:31.911Z,5.30
2022-12-22T18:09:00.759Z,4.90
2022-12-22T18:11:29.563Z,5.00
2022-12-22T18:14:00.167Z,4.57
2022-12-22T18:16:29.578Z,4.80
2022-12-22T18:18:57.888Z,5.77
2022-12-22T18:21:26.821Z,4.53
2022-12-22T18:23:55.173Z,4.57
2022-12-22T18:26:25.886Z,4.53
2022-12-22T18:28:55.077Z,6.17
2022-12-22T18:31:25.975Z,4.77
2022-12-22T18:33:54.821Z,4.77
2022-12-22T18:36:28.896Z,6.20
2022-12-22T18:38:58.229Z,5.30
2022-12-22T18:41:28.091Z,4.33
2022-12-22T18:43:56.660Z,5.87
2022-12-22T18:46:26.369Z,4.77
2022-12-22T18:48:57.819Z,4.50
2022-12-22T18:51:28.969Z,4.67
2022-12-22T18:53:57.436Z,4.43
2022-12-22T18:56:25.845Z,4.43
2022-12-22T18:58:54.846Z,4.67
2022-12-22T19:01:25.497Z,4.30
2022-12-22T19:03:59.859Z,4.93
2022-12-22T19:06:28.141Z,3.87
2022-12-22T19:08:56.287Z,3.97
2022-12-22T19:11:28.478Z,3.87
2022-12-22T19:13:58.420Z,3.57
2022-12-22T19:16:28.211Z,3.50
2022-12-22T19:19:00.219Z,3.63
2022-12-22T19:21:28.728Z,3.73
2022-12-22T19:23:56.960Z,3.33
2022-12-22T19:26:28.092Z,3.07
2022-12-22T19:29:00.860Z,3.37
2022-12-22T19:31:32.280Z,3.70
2022-12-22T19:34:05.513Z,3.63
2022-12-22T19:36:34.868Z,3.40
2022-12-22T19:39:05.021Z,3.53
2022-12-22T19:41:42.249Z,3.00
2022-12-22T19:44:22.424Z,3.33
2022-12-22T19:46:51.689Z,3.13
2022-12-22T19:49:23.628Z,3.30
2022-12-22T19:51:52.385Z,3.50
2022-12-22T19:54:20.703Z,3.20
2022-12-22T19:56:52.469Z,3.23
2022-12-22T19:59:35.598Z,3.00
2022-12-22T20:02:40.221Z,3.20
2022-12-22T20:05:30.504Z,3.43
2022-12-22T20:08:14.774Z,3.50
2022-12-22T20:10:45.703Z,3.40
2022-12-22T20:13:22.125Z,3.20
2022-12-22T20:15:57.378Z,3.60
2022-12-22T20:18:27.780Z,3.57
2022-12-22T20:21:04.092Z,3.77
2022-12-22T20:23:37.540Z,3.40
2022-12-22T20:26:11.023Z,3.80
2022-12-22T20:28:40.878Z,3.37
2022-12-22T20:31:16.522Z,3.00
2022-12-22T20:36:41.051Z,2.97
2022-12-22T20:39:23.644Z,3.00
2022-12-22T20:41:53.635Z,3.23
2022-12-22T20:44:23.374Z,3.20
2022-12-22T20:46:51.804Z,3.00
2022-12-22T20:49:20.769Z,3.03
2022-12-22T20:51:50.453Z,2.67
2022-12-22T20:54:18.696Z,3.90
2022-12-22T20:56:47.417Z,2.87
2022-12-22T20:59:17.528Z,2.73
2022-12-22T21:01:46.261Z,2.60
2022-12-22T21:04:15.259Z,2.93
2022-12-22T21:06:50.763Z,3.00
2022-12-22T21:09:22.121Z,3.07
2022-12-22T21:11:51.327Z,2.70
2022-12-22T21:14:19.610Z,3.20
2022-12-22T21:16:48.052Z,2.30
2022-12-22T21:19:18.586Z,2.70
2022-12-22T21:21:47.028Z,3.47
2022-12-22T21:24:15.312Z,2.50
2022-12-22T21:26:48.805Z,2.07
2022-12-22T21:29:21.620Z,1.70
2022-12-22T21:31:49.948Z,2.10
2022-12-22T21:34:18.691Z,2.00
2022-12-22T21:36:50.069Z,1.80
2022-12-22T21:39:34.443Z,1.80
2022-12-22T21:42:05.286Z,1.70
2022-12-22T21:44:36.294Z,1.60
2022-12-22T21:47:05.000Z,1.40
2022-12-22T21:49:34.885Z,1.40
2022-12-22T21:52:03.266Z,1.37
2022-12-22T21:54:31.521Z,1.20
2022-12-22T21:56:59.789Z,1.47
2022-12-22T21:59:29.706Z,1.70
2022-12-22T22:01:58.062Z,1.60
2022-12-22T22:04:26.503Z,1.47
2022-12-22T22:06:54.826Z,1.60
2022-12-22T22:09:25.276Z,1.80
2022-12-22T22:12:11.219Z,1.57
2022-12-22T22:14:40.861Z,1.57
2022-12-22T22:17:11.582Z,1.60
2022-12-22T22:19:39.823Z,2.07
2022-12-22T22:22:08.912Z,1.50
2022-12-22T22:24:40.668Z,1.83
2022-12-22T22:27:10.186Z,2.20
2022-12-22T22:29:38.712Z,1.60
2022-12-22T22:32:11.645Z,1.90
2022-12-22T22:34:40.061Z,3.23
2022-12-22T22:37:11.254Z,2.53
2022-12-22T22:39:40.018Z,5.90
2022-12-22T22:42:10.956Z,2.70
2022-12-22T22:44:39.130Z,7.97
2022-12-22T22:47:08.934Z,5.50
2022-12-22T22:49:37.188Z,2.50
2022-12-22T22:52:05.845Z,1.60
2022-12-22T22:54:34.359Z,1.13
2022-12-22T22:57:02.464Z,1.40
2022-12-22T22:59:30.652Z,1.20
2022-12-22T23:01:59.191Z,1.70
2022-12-22T23:04:29.033Z,1.47
2022-12-22T23:06:57.325Z,1.50
2022-12-22T23:09:25.874Z,1.20
2022-12-22T23:11:54.953Z,0.87
2022-12-22T23:14:23.517Z,1.23
2022-12-22T23:16:52.415Z,1.30
2022-12-22T23:19:21.048Z,1.00
2022-12-22T23:21:50.643Z,1.37
2022-12-22T23:24:18.952Z,1.77
2022-12-22T23:26:47.096Z,1.73
2022-12-22T23:29:15.218Z,2.30
2022-12-22T23:31:43.841Z,2.10
2022-12-22T23:34:12.641Z,2.57
2022-12-22T23:36:40.890Z,2.90
2022-12-22T23:39:11.013Z,2.80
2022-12-22T23:41:39.212Z,3.20
2022-12-22T23:44:07.503Z,3.30
2022-12-22T23:46:38.543Z,2.43
2022-12-22T23:49:06.997Z,2.57
2022-12-22T23:51:35.464Z,2.27
2022-12-22T23:54:03.823Z,2.67
2022-12-22T23:56:33.779Z,1.90
2022-12-22T23:59:01.992Z,1.97
